Nyala, Nevada Weather observations

Data are for observation ending at time listed.
 Day   Time    Ave.   Ave.  Ave.  Vector   Max.   Stn.    Total    Solar   Ave.  
  of    of     Air    Rel.  Wind   Wind    Wind   Baro.  Precip.   Rad.    Soil  
Year   Day     Temp.  Hum.  Speed  Dir.    Gust   Pres.                    Temp. 
2014   (PST)    F      %     mph   deg.    mph     mb.     in.     W/m2     F   
------------------------------------------------------------------------------
 202    3:00   66.0    27    1.8    33      5.3    852     0.00       0    85.2
 202    4:00  999.0   999  999.0   999    999.0    999    999.00     999    999.0
 202    5:00   60.8    34    0.3   166      5.4    854     0.00       2    82.8
 202    6:00   66.1    31    0.6   197      4.8    854     0.00      47    81.7
 202    7:00   73.1    26    1.4    23      4.5    854     0.00     131    80.9
 202    8:00   80.5    23    4.3   219     17.1    854     0.00     217    80.9
 202    9:00   82.8    22   13.0   210     24.1    854     0.00     297    81.7
 202   10:00   85.4    20   11.2   197     23.0    855     0.00     362    82.7
 202   11:00   87.1    18   12.0   194     23.5    855     0.00     401    83.7
 202   12:00   90.0    15   10.4   191     24.4    854     0.00     432    85.2
 202   13:00   91.4    14   11.3   186     27.0    854     0.00     428    87.3
 202   14:00   91.8    11   12.5   188     29.1    854     0.00     398    90.8
 202   15:00   92.2    10   12.4   181     25.6    853     0.00     346    94.2
 202   16:00   92.1    10   12.5   182     26.0    853     0.00     276    96.6
 202   17:00   91.5    10   11.3   179     23.5    853     0.00     193    98.1
 202   18:00   89.7    10   11.7   176     26.6    853     0.00     107    98.5
 202   19:00   85.4    11    9.9   187     20.5    853     0.00      28    98.0
 202   20:00   79.3    15    5.4   206     11.0    853     0.00       0    96.4
 202   21:00   77.0    16    7.5   220     12.0    854     0.00       0    94.3
 202   22:00   74.9    18    7.7   223     12.8    854     0.00       0    92.3
 202   23:00   73.3    19    7.8   224     16.9    854     0.00       0    90.6
 203    0:00   71.3    21    0.9   311      4.4    855     0.00       0    89.0
 203    1:00   65.4    25    0.7   101      4.2    855     0.00       0    87.5
 203    2:00   64.0    26    0.9    34      4.2    855     0.00       0    86.0

Return to Nyala, Nevada graphs page.


Western Regional Climate Center,wrcc@dri.edu